sensor_id;sensor_type;location;lat;lon;timestamp;temperature;humidity
27200;DHT22;14714;48.106;11.546;2023-06-10T00:00:44;15.00;99.90
27200;DHT22;14714;48.106;11.546;2023-06-10T00:03:11;14.90;99.90
27200;DHT22;14714;48.106;11.546;2023-06-10T00:05:39;14.90;99.90
27200;DHT22;14714;48.106;11.546;2023-06-10T00:08:06;14.80;99.90
27200;DHT22;14714;48.106;11.546;2023-06-10T00:10:35;14.80;99.90
27200;DHT22;14714;48.106;11.546;2023-06-10T00:13:06;14.80;99.90
27200;DHT22;14714;48.106;11.546;2023-06-10T00:15:37;14.80;99.90
27200;DHT22;14714;48.106;11.546;2023-06-10T00:18:04;14.80;99.90
27200;DHT22;14714;48.106;11.546;2023-06-10T00:20:32;14.80;99.90
27200;DHT22;14714;48.106;11.546;2023-06-10T00:22:59;14.80;99.90
27200;DHT22;14714;48.106;11.546;2023-06-10T00:25:28;14.70;99.90
27200;DHT22;14714;48.106;11.546;2023-06-10T00:27:55;14.70;99.90
27200;DHT22;14714;48.106;11.546;2023-06-10T00:30:22;14.70;99.90
27200;DHT22;14714;48.106;11.546;2023-06-10T00:32:49;14.60;99.90
27200;DHT22;14714;48.106;11.546;2023-06-10T00:35:16;14.60;99.90
27200;DHT22;14714;48.106;11.546;2023-06-10T00:37:42;14.60;99.90
27200;DHT22;14714;48.106;11.546;2023-06-10T00:40:10;14.60;99.90
27200;DHT22;14714;48.106;11.546;2023-06-10T00:42:37;14.50;99.90
27200;DHT22;14714;48.106;11.546;2023-06-10T00:45:05;14.50;99.90
27200;DHT22;14714;48.106;11.546;2023-06-10T00:47:33;14.50;99.90
27200;DHT22;14714;48.106;11.546;2023-06-10T00:50:02;14.40;99.90
27200;DHT22;14714;48.106;11.546;2023-06-10T00:52:29;14.40;99.90
27200;DHT22;14714;48.106;11.546;2023-06-10T00:54:57;14.40;99.90
27200;DHT22;14714;48.106;11.546;2023-06-10T00:57:26;14.30;99.90
27200;DHT22;14714;48.106;11.546;2023-06-10T00:59:54;14.30;99.90
27200;DHT22;14714;48.106;11.546;2023-06-10T01:02:21;14.20;99.90
27200;DHT22;14714;48.106;11.546;2023-06-10T01:04:48;14.20;99.90
27200;DHT22;14714;48.106;11.546;2023-06-10T01:07:34;14.20;99.90
27200;DHT22;14714;48.106;11.546;2023-06-10T01:10:18;14.10;99.90
27200;DHT22;14714;48.106;11.546;2023-06-10T01:12:55;14.10;99.90
27200;DHT22;14714;48.106;11.546;2023-06-10T01:15:26;14.00;99.90
27200;DHT22;14714;48.106;11.546;2023-06-10T01:18:12;14.00;99.90
27200;DHT22;14714;48.106;11.546;2023-06-10T01:20:43;13.90;99.90
27200;DHT22;14714;48.106;11.546;2023-06-10T01:23:11;13.90;99.90
27200;DHT22;14714;48.106;11.546;2023-06-10T01:25:55;13.90;99.90
27200;DHT22;14714;48.106;11.546;2023-06-10T01:28:48;13.80;99.90
27200;DHT22;14714;48.106;11.546;2023-06-10T01:31:36;13.70;99.90
27200;DHT22;14714;48.106;11.546;2023-06-10T01:34:10;13.70;99.90
27200;DHT22;14714;48.106;11.546;2023-06-10T01:36:38;13.60;99.90
27200;DHT22;14714;48.106;11.546;2023-06-10T01:39:08;13.60;99.90
27200;DHT22;14714;48.106;11.546;2023-06-10T01:41:37;13.60;99.90
27200;DHT22;14714;48.106;11.546;2023-06-10T01:44:04;13.60;99.90
27200;DHT22;14714;48.106;11.546;2023-06-10T01:46:31;13.50;99.90
27200;DHT22;14714;48.106;11.546;2023-06-10T01:48:58;13.50;99.90
27200;DHT22;14714;48.106;11.546;2023-06-10T01:51:25;13.50;99.90
27200;DHT22;14714;48.106;11.546;2023-06-10T01:53:52;13.50;99.90
27200;DHT22;14714;48.106;11.546;2023-06-10T01:56:19;13.40;99.90
27200;DHT22;14714;48.106;11.546;2023-06-10T01:58:46;13.40;99.90
27200;DHT22;14714;48.106;11.546;2023-06-10T02:01:14;13.50;99.90
27200;DHT22;14714;48.106;11.546;2023-06-10T02:03:41;13.40;99.90
27200;DHT22;14714;48.106;11.546;2023-06-10T02:06:08;13.40;99.90
27200;DHT22;14714;48.106;11.546;2023-06-10T02:08:35;13.30;99.90
27200;DHT22;14714;48.106;11.546;2023-06-10T02:11:02;13.30;99.90
27200;DHT22;14714;48.106;11.546;2023-06-10T02:13:29;13.30;99.90
27200;DHT22;14714;48.106;11.546;2023-06-10T02:15:56;13.20;99.90
27200;DHT22;14714;48.106;11.546;2023-06-10T02:18:23;13.20;99.90
27200;DHT22;14714;48.106;11.546;2023-06-10T02:20:50;13.20;99.90
27200;DHT22;14714;48.106;11.546;2023-06-10T02:23:17;13.10;99.90
27200;DHT22;14714;48.106;11.546;2023-06-10T02:25:44;13.10;99.90
27200;DHT22;14714;48.106;11.546;2023-06-10T02:28:11;13.10;99.90
27200;DHT22;14714;48.106;11.546;2023-06-10T02:30:41;13.10;99.90
27200;DHT22;14714;48.106;11.546;2023-06-10T02:33:08;13.10;99.90
27200;DHT22;14714;48.106;11.546;2023-06-10T02:35:39;13.10;99.90
27200;DHT22;14714;48.106;11.546;2023-06-10T02:38:06;13.00;99.90
27200;DHT22;14714;48.106;11.546;2023-06-10T02:40:33;13.00;99.90
27200;DHT22;14714;48.106;11.546;2023-06-10T02:43:00;13.00;99.90
27200;DHT22;14714;48.106;11.546;2023-06-10T02:45:26;12.90;99.90
27200;DHT22;14714;48.106;11.546;2023-06-10T02:47:53;12.90;99.90
27200;DHT22;14714;48.106;11.546;2023-06-10T02:50:21;12.90;99.90
27200;DHT22;14714;48.106;11.546;2023-06-10T02:52:48;12.80;99.90
27200;DHT22;14714;48.106;11.546;2023-06-10T02:55:15;12.80;99.90
27200;DHT22;14714;48.106;11.546;2023-06-10T02:57:42;12.80;99.90
27200;DHT22;14714;48.106;11.546;2023-06-10T03:00:09;12.80;99.90
27200;DHT22;14714;48.106;11.546;2023-06-10T03:02:38;12.80;99.90
27200;DHT22;14714;48.106;11.546;2023-06-10T03:05:06;12.70;99.90
27200;DHT22;14714;48.106;11.546;2023-06-10T03:07:37;12.70;99.90
27200;DHT22;14714;48.106;11.546;2023-06-10T03:10:05;12.70;99.90
27200;DHT22;14714;48.106;11.546;2023-06-10T03:12:32;12.70;99.90
27200;DHT22;14714;48.106;11.546;2023-06-10T03:14:59;12.70;99.90
27200;DHT22;14714;48.106;11.546;2023-06-10T03:17:26;12.60;99.90
27200;DHT22;14714;48.106;11.546;2023-06-10T03:19:53;12.60;99.90
27200;DHT22;14714;48.106;11.546;2023-06-10T03:22:20;12.60;99.90
27200;DHT22;14714;48.106;11.546;2023-06-10T03:24:47;12.60;99.90
27200;DHT22;14714;48.106;11.546;2023-06-10T03:27:17;12.60;99.90
27200;DHT22;14714;48.106;11.546;2023-06-10T03:29:44;12.60;99.90
27200;DHT22;14714;48.106;11.546;2023-06-10T03:32:11;12.50;99.90
27200;DHT22;14714;48.106;11.546;2023-06-10T03:34:38;12.50;99.90
27200;DHT22;14714;48.106;11.546;2023-06-10T03:37:05;12.50;99.90
27200;DHT22;14714;48.106;11.546;2023-06-10T03:39:35;12.50;99.90
27200;DHT22;14714;48.106;11.546;2023-06-10T03:42:02;12.50;99.90
27200;DHT22;14714;48.106;11.546;2023-06-10T03:44:28;12.50;99.90
27200;DHT22;14714;48.106;11.546;2023-06-10T03:46:55;12.50;99.90
27200;DHT22;14714;48.106;11.546;2023-06-10T03:49:24;12.60;99.90
27200;DHT22;14714;48.106;11.546;2023-06-10T03:51:53;12.60;99.90
27200;DHT22;14714;48.106;11.546;2023-06-10T03:54:20;12.60;99.90
27200;DHT22;14714;48.106;11.546;2023-06-10T03:56:47;12.70;99.90
27200;DHT22;14714;48.106;11.546;2023-06-10T03:59:17;12.80;99.90
27200;DHT22;14714;48.106;11.546;2023-06-10T04:01:44;13.20;99.90
27200;DHT22;14714;48.106;11.546;2023-06-10T04:04:14;13.70;99.90
27200;DHT22;14714;48.106;11.546;2023-06-10T04:06:43;14.40;99.90
27200;DHT22;14714;48.106;11.546;2023-06-10T04:09:13;15.10;99.90
27200;DHT22;14714;48.106;11.546;2023-06-10T04:11:40;16.00;99.90
27200;DHT22;14714;48.106;11.546;2023-06-10T04:14:07;16.70;99.90
27200;DHT22;14714;48.106;11.546;2023-06-10T04:16:34;17.50;99.90
27200;DHT22;14714;48.106;11.546;2023-06-10T04:19:02;18.30;99.90
27200;DHT22;14714;48.106;11.546;2023-06-10T04:21:29;19.10;99.90
27200;DHT22;14714;48.106;11.546;2023-06-10T04:23:56;19.80;99.90
27200;DHT22;14714;48.106;11.546;2023-06-10T04:26:23;20.50;99.90
27200;DHT22;14714;48.106;11.546;2023-06-10T04:28:50;21.20;99.90
27200;DHT22;14714;48.106;11.546;2023-06-10T04:31:17;21.80;99.90
27200;DHT22;14714;48.106;11.546;2023-06-10T04:33:44;22.50;99.90
27200;DHT22;14714;48.106;11.546;2023-06-10T04:36:11;23.20;99.90
27200;DHT22;14714;48.106;11.546;2023-06-10T04:38:38;23.80;99.90
27200;DHT22;14714;48.106;11.546;2023-06-10T04:41:05;24.40;98.70
27200;DHT22;14714;48.106;11.546;2023-06-10T04:43:31;25.00;95.40
27200;DHT22;14714;48.106;11.546;2023-06-10T04:45:58;25.60;92.20
27200;DHT22;14714;48.106;11.546;2023-06-10T04:48:26;26.10;89.60
27200;DHT22;14714;48.106;11.546;2023-06-10T04:50:53;26.60;84.90
27200;DHT22;14714;48.106;11.546;2023-06-10T04:53:20;27.10;81.00
27200;DHT22;14714;48.106;11.546;2023-06-10T04:55:47;27.50;77.10
27200;DHT22;14714;48.106;11.546;2023-06-10T04:58:15;28.00;73.80
27200;DHT22;14714;48.106;11.546;2023-06-10T05:00:42;28.50;70.40
27200;DHT22;14714;48.106;11.546;2023-06-10T05:03:10;29.00;68.80
27200;DHT22;14714;48.106;11.546;2023-06-10T05:05:37;29.40;64.70
27200;DHT22;14714;48.106;11.546;2023-06-10T05:08:04;30.00;61.70
27200;DHT22;14714;48.106;11.546;2023-06-10T05:10:34;30.50;60.00
27200;DHT22;14714;48.106;11.546;2023-06-10T05:13:01;31.00;58.50
27200;DHT22;14714;48.106;11.546;2023-06-10T05:15:29;31.60;57.20
27200;DHT22;14714;48.106;11.546;2023-06-10T05:17:57;32.00;53.90
27200;DHT22;14714;48.106;11.546;2023-06-10T05:20:29;32.40;52.20
27200;DHT22;14714;48.106;11.546;2023-06-10T05:22:56;32.70;51.20
27200;DHT22;14714;48.106;11.546;2023-06-10T05:25:28;32.90;50.70
27200;DHT22;14714;48.106;11.546;2023-06-10T05:27:56;33.00;49.20
27200;DHT22;14714;48.106;11.546;2023-06-10T05:30:23;33.00;49.90
27200;DHT22;14714;48.106;11.546;2023-06-10T05:32:56;33.40;48.90
27200;DHT22;14714;48.106;11.546;2023-06-10T05:35:25;33.70;47.70
27200;DHT22;14714;48.106;11.546;2023-06-10T05:37:52;34.00;47.20
27200;DHT22;14714;48.106;11.546;2023-06-10T05:40:25;34.20;46.50
27200;DHT22;14714;48.106;11.546;2023-06-10T05:42:52;34.50;45.00
27200;DHT22;14714;48.106;11.546;2023-06-10T05:45:19;34.70;44.90
27200;DHT22;14714;48.106;11.546;2023-06-10T05:47:46;35.10;44.50
27200;DHT22;14714;48.106;11.546;2023-06-10T05:50:13;35.50;43.10
27200;DHT22;14714;48.106;11.546;2023-06-10T05:52:40;35.90;43.00
27200;DHT22;14714;48.106;11.546;2023-06-10T05:55:07;36.20;41.80
27200;DHT22;14714;48.106;11.546;2023-06-10T05:57:35;36.50;41.40
27200;DHT22;14714;48.106;11.546;2023-06-10T06:00:02;36.70;40.70
27200;DHT22;14714;48.106;11.546;2023-06-10T06:02:29;37.00;39.80
27200;DHT22;14714;48.106;11.546;2023-06-10T06:04:56;37.10;39.50
27200;DHT22;14714;48.106;11.546;2023-06-10T06:07:23;37.20;39.80
27200;DHT22;14714;48.106;11.546;2023-06-10T06:09:50;37.70;38.80
27200;DHT22;14714;48.106;11.546;2023-06-10T06:12:17;37.60;38.50
27200;DHT22;14714;48.106;11.546;2023-06-10T06:14:44;37.70;38.50
27200;DHT22;14714;48.106;11.546;2023-06-10T06:17:11;37.70;38.70
27200;DHT22;14714;48.106;11.546;2023-06-10T06:19:39;38.10;37.60
27200;DHT22;14714;48.106;11.546;2023-06-10T06:22:06;38.20;37.40
27200;DHT22;14714;48.106;11.546;2023-06-10T06:24:33;38.40;36.50
27200;DHT22;14714;48.106;11.546;2023-06-10T06:27:00;38.50;36.50
27200;DHT22;14714;48.106;11.546;2023-06-10T06:29:26;38.80;36.50
27200;DHT22;14714;48.106;11.546;2023-06-10T06:31:57;39.20;36.20
27200;DHT22;14714;48.106;11.546;2023-06-10T06:34:24;39.60;35.00
27200;DHT22;14714;48.106;11.546;2023-06-10T06:36:50;39.60;34.50
27200;DHT22;14714;48.106;11.546;2023-06-10T06:39:17;39.80;34.10
27200;DHT22;14714;48.106;11.546;2023-06-10T06:41:44;40.00;33.50
27200;DHT22;14714;48.106;11.546;2023-06-10T06:44:11;39.80;33.10
27200;DHT22;14714;48.106;11.546;2023-06-10T06:46:38;38.60;35.00
27200;DHT22;14714;48.106;11.546;2023-06-10T06:49:05;36.80;37.00
27200;DHT22;14714;48.106;11.546;2023-06-10T06:51:33;34.60;41.00
27200;DHT22;14714;48.106;11.546;2023-06-10T06:54:00;32.90;44.00
27200;DHT22;14714;48.106;11.546;2023-06-10T06:56:26;31.40;47.10
27200;DHT22;14714;48.106;11.546;2023-06-10T06:58:54;30.30;49.20
27200;DHT22;14714;48.106;11.546;2023-06-10T07:01:23;30.10;50.20
27200;DHT22;14714;48.106;11.546;2023-06-10T07:03:51;30.50;50.00
27200;DHT22;14714;48.106;11.546;2023-06-10T07:06:18;31.30;48.60
27200;DHT22;14714;48.106;11.546;2023-06-10T07:08:44;32.20;47.50
27200;DHT22;14714;48.106;11.546;2023-06-10T07:11:11;33.30;45.50
27200;DHT22;14714;48.106;11.546;2023-06-10T07:13:38;34.40;43.30
27200;DHT22;14714;48.106;11.546;2023-06-10T07:16:05;34.90;42.90
27200;DHT22;14714;48.106;11.546;2023-06-10T07:18:32;35.60;41.80
27200;DHT22;14714;48.106;11.546;2023-06-10T07:20:59;36.30;41.40
27200;DHT22;14714;48.106;11.546;2023-06-10T07:23:26;37.20;39.00
27200;DHT22;14714;48.106;11.546;2023-06-10T07:25:52;38.10;37.40
27200;DHT22;14714;48.106;11.546;2023-06-10T07:28:19;39.20;36.00
27200;DHT22;14714;48.106;11.546;2023-06-10T07:30:46;39.90;34.30
27200;DHT22;14714;48.106;11.546;2023-06-10T07:33:13;40.40;33.20
27200;DHT22;14714;48.106;11.546;2023-06-10T07:35:40;40.30;33.10
27200;DHT22;14714;48.106;11.546;2023-06-10T07:38:09;40.40;32.80
27200;DHT22;14714;48.106;11.546;2023-06-10T07:40:36;40.20;32.80
27200;DHT22;14714;48.106;11.546;2023-06-10T07:43:03;40.20;32.70
27200;DHT22;14714;48.106;11.546;2023-06-10T07:45:30;40.50;32.50
27200;DHT22;14714;48.106;11.546;2023-06-10T07:47:57;40.70;32.40
27200;DHT22;14714;48.106;11.546;2023-06-10T07:50:24;40.60;31.70
27200;DHT22;14714;48.106;11.546;2023-06-10T07:52:51;40.30;32.40
27200;DHT22;14714;48.106;11.546;2023-06-10T07:55:18;39.50;33.70
27200;DHT22;14714;48.106;11.546;2023-06-10T07:57:44;39.20;33.30
27200;DHT22;14714;48.106;11.546;2023-06-10T08:00:12;39.10;34.30
27200;DHT22;14714;48.106;11.546;2023-06-10T08:02:39;39.30;33.60
27200;DHT22;14714;48.106;11.546;2023-06-10T08:05:06;39.40;32.80
27200;DHT22;14714;48.106;11.546;2023-06-10T08:07:35;39.70;32.70
27200;DHT22;14714;48.106;11.546;2023-06-10T08:10:03;40.10;31.60
27200;DHT22;14714;48.106;11.546;2023-06-10T08:12:31;40.00;31.80
27200;DHT22;14714;48.106;11.546;2023-06-10T08:14:58;40.00;31.50
27200;DHT22;14714;48.106;11.546;2023-06-10T08:17:25;40.20;31.60
27200;DHT22;14714;48.106;11.546;2023-06-10T08:19:52;40.30;31.10
27200;DHT22;14714;48.106;11.546;2023-06-10T08:22:19;40.30;31.00
27200;DHT22;14714;48.106;11.546;2023-06-10T08:24:46;39.90;31.60
27200;DHT22;14714;48.106;11.546;2023-06-10T08:27:15;39.80;32.40
27200;DHT22;14714;48.106;11.546;2023-06-10T08:29:42;39.60;31.50
27200;DHT22;14714;48.106;11.546;2023-06-10T08:32:09;38.20;33.40
27200;DHT22;14714;48.106;11.546;2023-06-10T08:34:36;36.10;36.60
27200;DHT22;14714;48.106;11.546;2023-06-10T08:37:04;35.40;38.00
27200;DHT22;14714;48.106;11.546;2023-06-10T08:39:31;35.40;38.10
27200;DHT22;14714;48.106;11.546;2023-06-10T08:42:14;36.10;37.20
27200;DHT22;14714;48.106;11.546;2023-06-10T08:44:46;36.70;36.30
27200;DHT22;14714;48.106;11.546;2023-06-10T08:47:14;36.80;36.70
27200;DHT22;14714;48.106;11.546;2023-06-10T08:49:46;36.90;35.40
27200;DHT22;14714;48.106;11.546;2023-06-10T08:52:19;36.70;35.90
27200;DHT22;14714;48.106;11.546;2023-06-10T08:54:54;37.20;36.10
27200;DHT22;14714;48.106;11.546;2023-06-10T08:57:23;37.70;35.10
27200;DHT22;14714;48.106;11.546;2023-06-10T08:59:50;38.00;34.40
27200;DHT22;14714;48.106;11.546;2023-06-10T09:02:17;38.50;34.20
27200;DHT22;14714;48.106;11.546;2023-06-10T09:04:47;38.20;34.70
27200;DHT22;14714;48.106;11.546;2023-06-10T09:07:18;37.50;34.80
27200;DHT22;14714;48.106;11.546;2023-06-10T09:09:45;36.80;36.00
27200;DHT22;14714;48.106;11.546;2023-06-10T09:12:13;36.90;35.90
27200;DHT22;14714;48.106;11.546;2023-06-10T09:14:44;36.90;36.20
27200;DHT22;14714;48.106;11.546;2023-06-10T09:17:11;36.10;37.00
27200;DHT22;14714;48.106;11.546;2023-06-10T09:19:38;34.70;39.80
27200;DHT22;14714;48.106;11.546;2023-06-10T09:22:06;33.50;41.90
27200;DHT22;14714;48.106;11.546;2023-06-10T09:24:34;33.50;43.10
27200;DHT22;14714;48.106;11.546;2023-06-10T09:27:05;33.70;41.90
27200;DHT22;14714;48.106;11.546;2023-06-10T09:29:52;34.00;40.60
27200;DHT22;14714;48.106;11.546;2023-06-10T09:32:20;33.80;40.00
27200;DHT22;14714;48.106;11.546;2023-06-10T09:34:48;33.30;41.60
27200;DHT22;14714;48.106;11.546;2023-06-10T09:37:23;33.00;43.00
27200;DHT22;14714;48.106;11.546;2023-06-10T09:40:06;33.00;43.30
27200;DHT22;14714;48.106;11.546;2023-06-10T09:42:38;33.40;43.00
27200;DHT22;14714;48.106;11.546;2023-06-10T09:45:06;33.70;41.70
27200;DHT22;14714;48.106;11.546;2023-06-10T09:47:33;33.80;42.20
27200;DHT22;14714;48.106;11.546;2023-06-10T09:50:00;34.10;40.90
27200;DHT22;14714;48.106;11.546;2023-06-10T09:52:29;34.00;39.90
27200;DHT22;14714;48.106;11.546;2023-06-10T09:55:03;34.00;40.40
27200;DHT22;14714;48.106;11.546;2023-06-10T09:57:31;34.00;40.00
27200;DHT22;14714;48.106;11.546;2023-06-10T10:00:10;33.40;41.10
27200;DHT22;14714;48.106;11.546;2023-06-10T10:02:46;32.00;43.00
27200;DHT22;14714;48.106;11.546;2023-06-10T10:05:15;31.10;45.10
27200;DHT22;14714;48.106;11.546;2023-06-10T10:07:43;31.00;45.60
27200;DHT22;14714;48.106;11.546;2023-06-10T10:10:12;31.40;45.00
27200;DHT22;14714;48.106;11.546;2023-06-10T10:12:40;31.30;44.70
27200;DHT22;14714;48.106;11.546;2023-06-10T10:15:11;30.50;45.50
27200;DHT22;14714;48.106;11.546;2023-06-10T10:20:14;28.70;50.20
27200;DHT22;14714;48.106;11.546;2023-06-10T10:22:43;28.50;50.80
27200;DHT22;14714;48.106;11.546;2023-06-10T10:25:19;28.10;50.70
27200;DHT22;14714;48.106;11.546;2023-06-10T10:28:05;27.80;51.60
27200;DHT22;14714;48.106;11.546;2023-06-10T10:30:39;27.80;51.70
27200;DHT22;14714;48.106;11.546;2023-06-10T10:33:12;27.90;51.70
27200;DHT22;14714;48.106;11.546;2023-06-10T10:35:39;28.50;51.00
27200;DHT22;14714;48.106;11.546;2023-06-10T10:38:07;28.90;49.70
27200;DHT22;14714;48.106;11.546;2023-06-10T10:40:34;28.60;50.20
27200;DHT22;14714;48.106;11.546;2023-06-10T10:43:02;28.00;50.90
27200;DHT22;14714;48.106;11.546;2023-06-10T10:45:29;27.50;51.80
27200;DHT22;14714;48.106;11.546;2023-06-10T10:47:56;27.50;52.90
27200;DHT22;14714;48.106;11.546;2023-06-10T10:50:24;27.60;53.30
27200;DHT22;14714;48.106;11.546;2023-06-10T10:53:02;27.90;51.40
27200;DHT22;14714;48.106;11.546;2023-06-10T10:55:30;28.50;50.60
27200;DHT22;14714;48.106;11.546;2023-06-10T11:00:37;27.80;51.50
27200;DHT22;14714;48.106;11.546;2023-06-10T11:03:13;27.30;52.80
27200;DHT22;14714;48.106;11.546;2023-06-10T11:05:46;27.10;53.30
27200;DHT22;14714;48.106;11.546;2023-06-10T11:10:55;26.90;54.10
27200;DHT22;14714;48.106;11.546;2023-06-10T11:13:25;27.00;54.70
27200;DHT22;14714;48.106;11.546;2023-06-10T11:16:00;27.00;53.00
27200;DHT22;14714;48.106;11.546;2023-06-10T11:18:38;27.20;53.80
27200;DHT22;14714;48.106;11.546;2023-06-10T11:21:06;27.00;54.20
27200;DHT22;14714;48.106;11.546;2023-06-10T11:23:40;27.00;54.90
27200;DHT22;14714;48.106;11.546;2023-06-10T11:31:29;27.70;52.20
27200;DHT22;14714;48.106;11.546;2023-06-10T11:34:04;27.90;52.40
27200;DHT22;14714;48.106;11.546;2023-06-10T11:36:34;28.10;51.90
27200;DHT22;14714;48.106;11.546;2023-06-10T11:39:12;28.30;51.70
27200;DHT22;14714;48.106;11.546;2023-06-10T11:41:58;28.80;51.20
27200;DHT22;14714;48.106;11.546;2023-06-10T11:44:27;28.90;51.30
27200;DHT22;14714;48.106;11.546;2023-06-10T11:46:56;28.80;49.40
27200;DHT22;14714;48.106;11.546;2023-06-10T11:49:23;28.70;49.30
27200;DHT22;14714;48.106;11.546;2023-06-10T11:51:51;28.30;49.20
27200;DHT22;14714;48.106;11.546;2023-06-10T11:54:22;27.80;51.50
27200;DHT22;14714;48.106;11.546;2023-06-10T11:56:48;27.60;51.80
27200;DHT22;14714;48.106;11.546;2023-06-10T11:59:15;27.60;51.90
27200;DHT22;14714;48.106;11.546;2023-06-10T12:01:44;27.60;51.30
27200;DHT22;14714;48.106;11.546;2023-06-10T12:04:15;27.40;52.10
27200;DHT22;14714;48.106;11.546;2023-06-10T12:06:49;27.30;52.30
27200;DHT22;14714;48.106;11.546;2023-06-10T12:09:28;27.40;53.60
27200;DHT22;14714;48.106;11.546;2023-06-10T12:12:05;27.30;52.80
27200;DHT22;14714;48.106;11.546;2023-06-10T12:14:56;27.20;52.40
27200;DHT22;14714;48.106;11.546;2023-06-10T12:17:36;27.30;51.40
27200;DHT22;14714;48.106;11.546;2023-06-10T12:20:24;27.30;51.30
27200;DHT22;14714;48.106;11.546;2023-06-10T12:22:51;27.40;51.30
27200;DHT22;14714;48.106;11.546;2023-06-10T12:25:28;27.40;52.50
27200;DHT22;14714;48.106;11.546;2023-06-10T12:27:58;27.40;52.30
27200;DHT22;14714;48.106;11.546;2023-06-10T12:30:25;27.40;51.00
27200;DHT22;14714;48.106;11.546;2023-06-10T12:32:53;27.20;51.80
27200;DHT22;14714;48.106;11.546;2023-06-10T12:35:22;26.90;51.70
27200;DHT22;14714;48.106;11.546;2023-06-10T12:40:37;26.80;53.20
27200;DHT22;14714;48.106;11.546;2023-06-10T12:43:06;27.00;51.40
27200;DHT22;14714;48.106;11.546;2023-06-10T12:45:35;27.30;52.90
27200;DHT22;14714;48.106;11.546;2023-06-10T12:48:07;27.50;51.10
27200;DHT22;14714;48.106;11.546;2023-06-10T12:50:40;27.60;50.00
27200;DHT22;14714;48.106;11.546;2023-06-10T12:53:09;27.50;50.50
27200;DHT22;14714;48.106;11.546;2023-06-10T12:55:36;27.40;50.00
27200;DHT22;14714;48.106;11.546;2023-06-10T12:58:03;27.50;49.70
27200;DHT22;14714;48.106;11.546;2023-06-10T13:00:30;27.50;50.30
27200;DHT22;14714;48.106;11.546;2023-06-10T13:03:00;27.40;49.10
27200;DHT22;14714;48.106;11.546;2023-06-10T13:05:32;27.40;49.90
27200;DHT22;14714;48.106;11.546;2023-06-10T13:07:59;27.50;50.10
27200;DHT22;14714;48.106;11.546;2023-06-10T13:10:26;27.30;49.50
27200;DHT22;14714;48.106;11.546;2023-06-10T13:12:54;27.10;53.30
27200;DHT22;14714;48.106;11.546;2023-06-10T13:15:23;26.70;55.70
27200;DHT22;14714;48.106;11.546;2023-06-10T13:17:53;26.20;56.90
27200;DHT22;14714;48.106;11.546;2023-06-10T13:20:20;26.00;57.30
27200;DHT22;14714;48.106;11.546;2023-06-10T13:22:47;25.90;58.90
27200;DHT22;14714;48.106;11.546;2023-06-10T13:25:14;25.70;58.80
27200;DHT22;14714;48.106;11.546;2023-06-10T13:27:41;25.60;59.60
27200;DHT22;14714;48.106;11.546;2023-06-10T13:30:09;25.60;61.50
27200;DHT22;14714;48.106;11.546;2023-06-10T13:32:37;25.60;61.50
27200;DHT22;14714;48.106;11.546;2023-06-10T13:35:05;25.50;60.50
27200;DHT22;14714;48.106;11.546;2023-06-10T13:37:33;25.30;60.80
27200;DHT22;14714;48.106;11.546;2023-06-10T13:40:01;25.00;61.30
27200;DHT22;14714;48.106;11.546;2023-06-10T13:42:29;24.70;62.60
27200;DHT22;14714;48.106;11.546;2023-06-10T13:44:56;24.50;62.20
27200;DHT22;14714;48.106;11.546;2023-06-10T13:47:23;24.40;63.20
27200;DHT22;14714;48.106;11.546;2023-06-10T13:49:51;24.40;63.30
27200;DHT22;14714;48.106;11.546;2023-06-10T13:52:18;24.40;62.90
27200;DHT22;14714;48.106;11.546;2023-06-10T13:54:45;24.50;63.30
27200;DHT22;14714;48.106;11.546;2023-06-10T13:57:12;24.50;62.80
27200;DHT22;14714;48.106;11.546;2023-06-10T13:59:39;24.50;61.70
27200;DHT22;14714;48.106;11.546;2023-06-10T14:02:06;24.60;62.50
27200;DHT22;14714;48.106;11.546;2023-06-10T14:04:33;24.60;62.40
27200;DHT22;14714;48.106;11.546;2023-06-10T14:07:00;24.60;61.50
27200;DHT22;14714;48.106;11.546;2023-06-10T14:09:30;24.60;60.40
27200;DHT22;14714;48.106;11.546;2023-06-10T14:12:07;24.60;61.40
27200;DHT22;14714;48.106;11.546;2023-06-10T14:14:34;24.60;60.30
27200;DHT22;14714;48.106;11.546;2023-06-10T14:17:03;24.50;59.70
27200;DHT22;14714;48.106;11.546;2023-06-10T14:19:40;24.50;59.80
27200;DHT22;14714;48.106;11.546;2023-06-10T14:22:08;24.50;59.90
27200;DHT22;14714;48.106;11.546;2023-06-10T14:24:35;24.40;59.60
27200;DHT22;14714;48.106;11.546;2023-06-10T14:27:03;24.50;60.10
27200;DHT22;14714;48.106;11.546;2023-06-10T14:29:30;24.50;61.00
27200;DHT22;14714;48.106;11.546;2023-06-10T14:32:01;24.50;60.40
27200;DHT22;14714;48.106;11.546;2023-06-10T14:34:31;24.60;59.50
27200;DHT22;14714;48.106;11.546;2023-06-10T14:37:18;24.60;60.50
27200;DHT22;14714;48.106;11.546;2023-06-10T14:39:51;24.60;60.70
27200;DHT22;14714;48.106;11.546;2023-06-10T14:42:21;24.60;61.10
27200;DHT22;14714;48.106;11.546;2023-06-10T14:44:48;24.60;60.60
27200;DHT22;14714;48.106;11.546;2023-06-10T14:47:16;24.60;59.20
27200;DHT22;14714;48.106;11.546;2023-06-10T14:49:43;24.60;59.90
27200;DHT22;14714;48.106;11.546;2023-06-10T14:52:11;24.60;60.00
27200;DHT22;14714;48.106;11.546;2023-06-10T14:54:38;24.60;59.90
27200;DHT22;14714;48.106;11.546;2023-06-10T14:57:07;24.60;59.70
27200;DHT22;14714;48.106;11.546;2023-06-10T14:59:34;24.70;57.10
27200;DHT22;14714;48.106;11.546;2023-06-10T15:02:01;24.70;57.50
27200;DHT22;14714;48.106;11.546;2023-06-10T15:04:28;24.70;57.60
27200;DHT22;14714;48.106;11.546;2023-06-10T15:06:56;24.80;57.70
27200;DHT22;14714;48.106;11.546;2023-06-10T15:09:26;24.90;58.20
27200;DHT22;14714;48.106;11.546;2023-06-10T15:11:53;25.00;58.30
27200;DHT22;14714;48.106;11.546;2023-06-10T15:14:19;25.10;58.30
27200;DHT22;14714;48.106;11.546;2023-06-10T15:16:47;25.20;57.30
27200;DHT22;14714;48.106;11.546;2023-06-10T15:19:48;25.20;57.80
27200;DHT22;14714;48.106;11.546;2023-06-10T15:22:15;25.20;58.50
27200;DHT22;14714;48.106;11.546;2023-06-10T15:24:42;25.30;59.00
27200;DHT22;14714;48.106;11.546;2023-06-10T15:27:09;25.30;60.00
27200;DHT22;14714;48.106;11.546;2023-06-10T15:29:36;25.30;61.30
27200;DHT22;14714;48.106;11.546;2023-06-10T15:32:04;25.20;61.20
27200;DHT22;14714;48.106;11.546;2023-06-10T15:34:31;25.10;61.30
27200;DHT22;14714;48.106;11.546;2023-06-10T15:36:58;25.10;61.40
27200;DHT22;14714;48.106;11.546;2023-06-10T15:39:25;25.10;62.00
27200;DHT22;14714;48.106;11.546;2023-06-10T15:41:56;25.00;61.30